Time;durP1;ratioP1;P1;durP2;ratioP2;P2;SDS_P1;SDS_P2;PMS_P1;PMS_P2;Temp;Humidity;BMP_temperature;BMP_pressure;BME280_temperature;BME280_humidity;BME280_pressure;Samples;Min_cycle;Max_cycle;Signal;HPM_P1;HPM_P2
2023/04/04 00:01:59;;;;;;;;;;;;;;;4.30;100.00;96436.72;5087766;28;19921;-83
2023/04/04 00:04:27;;;;;;;;;;;;;;;4.25;100.00;96439.16;5085157;28;19920;-82
2023/04/04 00:06:54;;;;;;;;;;;;;;;4.15;100.00;96423.41;5085014;28;20007;-83
2023/04/04 00:09:21;;;;;;;;;;;;;;;4.08;100.00;96427.03;5086626;28;19920;-83
2023/04/04 00:11:50;;;;;;;;;;;;;;;4.08;100.00;96419.81;5079519;28;19928;-82
2023/04/04 00:14:17;;;;;;;;;;;;;;;4.10;100.00;96419.63;5082696;28;19994;-83
2023/04/04 00:16:44;;;;;;;;;;;;;;;4.09;100.00;96420.63;5089923;28;20014;-83
2023/04/04 00:19:16;;;;;;;;;;;;;;;4.04;100.00;96425.72;5075818;28;19927;-82
2023/04/04 00:21:43;;;;;;;;;;;;;;;4.07;100.00;96430.72;5082708;28;19920;-82
2023/04/04 00:24:11;;;;;;;;;;;;;;;4.11;100.00;96422.13;5078533;28;19921;-82
2023/04/04 00:26:37;;;;;;;;;;;;;;;4.16;100.00;96419.72;5087595;28;19924;-83
2023/04/04 00:29:06;;;;;;;;;;;;;;;4.15;100.00;96422.59;5086201;28;19927;-83
2023/04/04 00:31:33;;;;;;;;;;;;;;;4.14;100.00;96421.75;5088350;28;19965;-83
2023/04/04 00:33:59;;;;;;;;;;;;;;;4.16;100.00;96424.25;5086508;28;19927;-82
2023/04/04 00:36:26;;;;;;;;;;;;;;;4.15;100.00;96419.91;5075492;28;19932;-82
2023/04/04 00:38:53;;;;;;;;;;;;;;;4.15;100.00;96425.25;5090397;28;19920;-83
2023/04/04 00:41:20;;;;;;;;;;;;;;;4.12;100.00;96430.97;5086947;28;19924;-83
2023/04/04 00:43:46;;;;;;;;;;;;;;;4.11;100.00;96426.63;5090351;28;19920;-83
2023/04/04 00:46:17;;;;;;;;;;;;;;;4.09;100.00;96428.66;5086726;28;19920;-83
2023/04/04 00:48:46;;;;;;;;;;;;;;;4.15;100.00;96420.75;5086432;28;19952;-82
2023/04/04 00:51:13;;;;;;;;;;;;;;;4.11;100.00;96422.13;5083502;28;19920;-82
2023/04/04 00:53:40;;;;;;;;;;;;;;;4.15;100.00;96423.41;5090501;28;19924;-83
2023/04/04 00:56:09;;;;;;;;;;;;;;;4.13;100.00;96419.25;5084881;28;19930;-82
2023/04/04 00:58:36;;;;;;;;;;;;;;;4.09;100.00;96415.28;5083463;28;19958;-83
2023/04/04 01:01:03;;;;;;;;;;;;;;;4.05;100.00;96419.38;5080567;28;20039;-82
2023/04/04 01:03:32;;;;;;;;;;;;;;;4.06;100.00;96424.53;5088260;28;19926;-82
2023/04/04 01:05:59;;;;;;;;;;;;;;;4.10;100.00;96415.09;5085199;28;19931;-82
2023/04/04 01:08:28;;;;;;;;;;;;;;;4.10;100.00;96414.28;5078195;28;19974;-82
2023/04/04 01:10:55;;;;;;;;;;;;;;;4.07;100.00;96412.84;5080833;28;19920;-82
2023/04/04 01:13:23;;;;;;;;;;;;;;;4.09;100.00;96412.63;5087667;28;19927;-83
2023/04/04 01:15:51;;;;;;;;;;;;;;;4.11;100.00;96415.94;5079595;28;19920;-82
2023/04/04 01:18:20;;;;;;;;;;;;;;;4.12;100.00;96418.44;5088437;28;19928;-82
2023/04/04 01:20:52;;;;;;;;;;;;;;;4.13;100.00;96413.91;5079142;28;19920;-82
2023/04/04 01:23:21;;;;;;;;;;;;;;;4.15;100.00;96412.72;5079385;28;19921;-82
2023/04/04 01:25:50;;;;;;;;;;;;;;;4.15;100.00;96411.88;5079476;28;19925;-82
2023/04/04 01:28:17;;;;;;;;;;;;;;;4.18;100.00;96411.50;5086501;28;19920;-83
2023/04/04 01:30:45;;;;;;;;;;;;;;;4.18;100.00;96411.50;5102371;28;19969;-83
2023/04/04 01:33:16;;;;;;;;;;;;;;;4.18;100.00;96409.66;5081781;28;19959;-82
2023/04/04 01:35:50;;;;;;;;;;;;;;;4.19;100.00;96400.63;5078362;28;19928;-83
2023/04/04 01:38:21;;;;;;;;;;;;;;;4.18;100.00;96400.81;5080930;28;20001;-82
2023/04/04 01:40:51;;;;;;;;;;;;;;;4.13;100.00;96403.22;5079578;28;19970;-82
2023/04/04 01:43:18;;;;;;;;;;;;;;;4.11;100.00;96394.56;5087445;28;19920;-81
2023/04/04 01:45:46;;;;;;;;;;;;;;;4.09;100.00;96396.59;5077629;28;19924;-83
2023/04/04 01:48:15;;;;;;;;;;;;;;;4.07;99.42;96394.13;5082442;28;19921;-83
2023/04/04 01:50:43;;;;;;;;;;;;;;;4.24;98.50;96393.88;5078844;28;19920;-83
2023/04/04 01:53:10;;;;;;;;;;;;;;;4.16;97.90;96394.84;5084028;28;19919;-83
2023/04/04 01:55:37;;;;;;;;;;;;;;;4.16;97.65;96394.84;5080926;28;19920;-80
2023/04/04 01:58:05;;;;;;;;;;;;;;;4.12;98.26;96399.72;5084368;28;19928;-83
2023/04/04 02:00:33;;;;;;;;;;;;;;;4.12;98.28;96394.38;5089917;28;19965;-83
2023/04/04 02:03:00;;;;;;;;;;;;;;;4.09;99.21;96397.41;5080217;28;19924;-83
2023/04/04 02:05:27;;;;;;;;;;;;;;;4.06;98.19;96397.81;5087257;28;19924;-82
2023/04/04 02:07:54;;;;;;;;;;;;;;;4.03;99.08;96392.00;5085536;28;20011;-83
2023/04/04 02:10:30;;;;;;;;;;;;;;;4.06;97.22;96395.16;5076692;28;19931;-82
2023/04/04 02:12:57;;;;;;;;;;;;;;;4.02;97.56;96401.03;5081685;28;19919;-83
2023/04/04 02:15:27;;;;;;;;;;;;;;;4.01;96.52;96394.03;5081439;28;19969;-83
2023/04/04 02:17:54;;;;;;;;;;;;;;;4.00;95.66;96393.19;5083095;28;19927;-83
2023/04/04 02:20:21;;;;;;;;;;;;;;;3.98;96.43;96389.09;5082682;28;19925;-82
2023/04/04 02:22:53;;;;;;;;;;;;;;;4.01;96.34;96389.53;5077587;28;19963;-82
2023/04/04 02:25:21;;;;;;;;;;;;;;;3.98;96.72;96395.25;5081566;28;19924;-83
2023/04/04 02:27:47;;;;;;;;;;;;;;;3.91;97.88;96391.69;5079587;28;19920;-82
2023/04/04 02:30:14;;;;;;;;;;;;;;;3.85;97.40;96391.59;5084475;28;19934;-83
2023/04/04 02:32:44;;;;;;;;;;;;;;;3.84;97.80;96395.25;5080043;28;19958;-83
2023/04/04 02:35:16;;;;;;;;;;;;;;;3.88;98.27;96396.56;5076827;28;19920;-83
2023/04/04 02:37:44;;;;;;;;;;;;;;;3.91;98.26;96391.69;5080074;28;19920;-83
2023/04/04 02:40:11;;;;;;;;;;;;;;;3.88;98.63;96396.56;5084112;28;19920;-83
2023/04/04 02:42:42;;;;;;;;;;;;;;;3.85;98.37;96395.09;5084941;28;19927;-83
2023/04/04 02:45:09;;;;;;;;;;;;;;;3.78;99.44;96399.53;5077116;28;19928;-82
2023/04/04 02:47:37;;;;;;;;;;;;;;;3.74;100.00;96396.38;5100330;28;19920;-83
2023/04/04 02:50:07;;;;;;;;;;;;;;;3.76;100.00;96396.22;5078611;28;19997;-83
2023/04/04 02:52:34;;;;;;;;;;;;;;;3.74;100.00;96393.72;5074672;28;20086;-83
2023/04/04 02:55:08;;;;;;;;;;;;;;;3.72;100.00;96387.75;5082768;28;19920;-83
2023/04/04 02:57:38;;;;;;;;;;;;;;;3.68;100.00;96397.13;5087413;28;19955;-83
2023/04/04 03:00:05;;;;;;;;;;;;;;;3.67;100.00;96397.31;5091069;28;19924;-83
2023/04/04 03:02:33;;;;;;;;;;;;;;;3.64;100.00;96398.53;5086651;28;20010;-82
2023/04/04 03:04:59;;;;;;;;;;;;;;;3.71;100.00;96395.94;5085628;28;19920;-82
2023/04/04 03:07:28;;;;;;;;;;;;;;;3.64;100.00;96397.72;5085312;28;19920;-82
2023/04/04 03:09:55;;;;;;;;;;;;;;;3.58;100.00;96399.25;5096566;28;19932;-82
2023/04/04 03:12:21;;;;;;;;;;;;;;;3.55;100.00;96399.66;5094785;28;19927;-82
2023/04/04 03:14:49;;;;;;;;;;;;;;;3.54;100.00;96407.84;5091152;28;19924;-83
2023/04/04 03:17:17;;;;;;;;;;;;;;;3.53;100.00;96400.84;5089240;28;19924;-82
2023/04/04 03:19:46;;;;;;;;;;;;;;;3.43;100.00;96401.13;5083817;28;19920;-83
2023/04/04 03:22:13;;;;;;;;;;;;;;;3.43;100.00;96398.44;5091128;28;19924;-82
2023/04/04 03:24:41;;;;;;;;;;;;;;;3.37;100.00;96397.34;5088071;28;19928;-83
2023/04/04 03:27:08;;;;;;;;;;;;;;;3.35;100.00;96393.22;5092974;28;19927;-82
2023/04/04 03:29:35;;;;;;;;;;;;;;;3.43;100.00;96395.78;5089886;28;19924;-83
2023/04/04 03:32:03;;;;;;;;;;;;;;;3.33;100.00;96400.56;5087582;28;20050;-83
2023/04/04 03:34:30;;;;;;;;;;;;;;;3.32;100.00;96393.56;5083315;28;19927;-82
2023/04/04 03:36:57;;;;;;;;;;;;;;;3.27;100.00;96391.47;5083629;28;19954;-83
2023/04/04 03:39:28;;;;;;;;;;;;;;;3.20;100.00;96397.72;5090174;28;20169;-83
2023/04/04 03:41:56;;;;;;;;;;;;;;;3.10;100.00;96394.47;5086587;28;19920;-82
2023/04/04 03:44:23;;;;;;;;;;;;;;;3.01;100.00;96396.41;5087872;28;19923;-82
2023/04/04 03:46:50;;;;;;;;;;;;;;;3.03;100.00;96395.22;5091055;28;19931;-83
2023/04/04 03:49:17;;;;;;;;;;;;;;;3.02;100.00;96396.22;5072444;28;20169;-82
2023/04/04 03:51:45;;;;;;;;;;;;;;;2.95;100.00;96391.81;5076000;28;19920;-83
2023/04/04 03:54:11;;;;;;;;;;;;;;;2.88;100.00;96396.22;5090255;28;19924;-82
2023/04/04 03:56:40;;;;;;;;;;;;;;;2.83;100.00;96399.41;5088957;28;19995;-81
2023/04/04 03:59:08;;;;;;;;;;;;;;;2.84;100.00;96395.72;5083855;28;19928;-82
2023/04/04 04:01:35;;;;;;;;;;;;;;;2.89;100.00;96397.88;5084620;28;19920;-82
2023/04/04 04:04:02;;;;;;;;;;;;;;;2.95;100.00;96392.63;5086130;28;19944;-82
2023/04/04 04:06:29;;;;;;;;;;;;;;;2.92;100.00;96398.31;5076817;28;19920;-82
2023/04/04 04:08:57;;;;;;;;;;;;;;;2.78;100.00;96400.97;5089502;28;19928;-83
2023/04/04 04:11:23;;;;;;;;;;;;;;;2.72;100.00;96397.19;5082196;28;19924;-81
2023/04/04 04:13:51;;;;;;;;;;;;;;;2.73;100.00;96408.66;5087992;28;19920;-83
2023/04/04 04:16:20;;;;;;;;;;;;;;;2.74;100.00;96411.16;5090984;28;19932;-83
2023/04/04 04:18:48;;;;;;;;;;;;;;;2.79;100.00;96405.28;5089339;28;19931;-82
2023/04/04 04:21:22;;;;;;;;;;;;;;;2.80;100.00;96410.47;5089462;28;19957;-82
2023/04/04 04:23:50;;;;;;;;;;;;;;;2.88;100.00;96412.22;5105345;28;20019;-82
2023/04/04 04:26:17;;;;;;;;;;;;;;;2.88;100.00;96407.72;5087896;28;19928;-82
2023/04/04 04:28:43;;;;;;;;;;;;;;;2.93;100.00;96405.31;5079868;28;19920;-82
2023/04/04 04:31:15;;;;;;;;;;;;;;;2.99;100.00;96412.59;5079381;28;19920;-82
2023/04/04 04:33:47;;;;;;;;;;;;;;;3.02;100.00;96412.22;5082052;28;19921;-82
2023/04/04 04:36:14;;;;;;;;;;;;;;;3.05;100.00;96408.38;5088221;28;19920;-82
2023/04/04 04:39:01;;;;;;;;;;;;;;;2.98;100.00;96413.59;5087666;28;19982;-82
2023/04/04 04:41:32;;;;;;;;;;;;;;;2.92;100.00;96418.84;5087688;28;19920;-82
2023/04/04 04:44:01;;;;;;;;;;;;;;;2.89;100.00;96424.53;5087666;28;20015;-83
2023/04/04 04:46:27;;;;;;;;;;;;;;;2.87;100.00;96421.22;5088283;28;19941;-83
2023/04/04 04:48:56;;;;;;;;;;;;;;;2.89;100.00;96432.53;5100267;28;19928;-83
2023/04/04 04:51:29;;;;;;;;;;;;;;;2.97;100.00;96433.31;5087902;28;19924;-83
2023/04/04 04:53:58;;;;;;;;;;;;;;;3.03;100.00;96432.56;5077873;28;19921;-83
2023/04/04 04:56:27;;;;;;;;;;;;;;;3.00;100.00;96432.91;5081996;28;19959;-83
2023/04/04 04:58:58;;;;;;;;;;;;;;;2.98;100.00;96437.59;5084548;28;19935;-82
2023/04/04 05:01:27;;;;;;;;;;;;;;;2.91;100.00;96434.00;5085478;28;19931;-83
2023/04/04 05:03:57;;;;;;;;;;;;;;;2.86;100.00;96431.06;5086991;28;19920;-82
2023/04/04 05:06:31;;;;;;;;;;;;;;;2.88;100.00;96439.72;5080793;28;19920;-82
2023/04/04 05:08:58;;;;;;;;;;;;;;;2.89;100.00;96435.22;5077979;28;19924;-82
2023/04/04 05:11:29;;;;;;;;;;;;;;;2.84;100.00;96438.41;5085423;28;19943;-82
2023/04/04 05:13:57;;;;;;;;;;;;;;;2.85;100.00;96441.91;5086350;28;19967;-82
2023/04/04 05:16:26;;;;;;;;;;;;;;;2.77;100.00;96432.13;5075287;28;19920;-83
2023/04/04 05:18:58;;;;;;;;;;;;;;;2.71;100.00;96432.88;5086454;28;19928;-82
2023/04/04 05:21:25;;;;;;;;;;;;;;;2.69;100.00;96437.53;5083805;28;20023;-82
2023/04/04 05:23:54;;;;;;;;;;;;;;;2.68;100.00;96435.88;5086657;28;19927;-82
2023/04/04 05:26:23;;;;;;;;;;;;;;;2.69;100.00;96434.88;5093416;28;19920;-82
2023/04/04 05:28:53;;;;;;;;;;;;;;;2.64;100.00;96438.06;5079875;28;19923;-82
2023/04/04 05:31:21;;;;;;;;;;;;;;;2.62;100.00;96439.28;5083664;28;19927;-82
2023/04/04 05:33:51;;;;;;;;;;;;;;;2.61;100.00;96445.59;5076650;28;19927;-82
2023/04/04 05:36:28;;;;;;;;;;;;;;;2.63;100.00;96446.25;5081677;28;19923;-81
2023/04/04 05:39:00;;;;;;;;;;;;;;;2.64;100.00;96442.56;5087944;28;19949;-82
2023/04/04 05:41:32;;;;;;;;;;;;;;;2.71;100.00;96443.53;5086086;28;19920;-81
2023/04/04 05:44:05;;;;;;;;;;;;;;;2.69;100.00;96442.88;5080121;28;19973;-81
2023/04/04 05:46:32;;;;;;;;;;;;;;;2.73;100.00;96444.16;5085951;28;19927;-82
2023/04/04 05:48:59;;;;;;;;;;;;;;;2.73;100.00;96444.16;5071098;28;19920;-82
2023/04/04 05:51:28;;;;;;;;;;;;;;;2.71;100.00;96451.53;5096857;28;19928;-82
2023/04/04 05:54:06;;;;;;;;;;;;;;;2.73;100.00;96446.81;5073282;28;19982;-81
2023/04/04 05:56:34;;;;;;;;;;;;;;;2.71;100.00;96453.38;5075385;28;19930;-82
2023/04/04 05:59:04;;;;;;;;;;;;;;;2.75;100.00;96450.16;5077222;28;19920;-82
2023/04/04 06:01:34;;;;;;;;;;;;;;;2.84;100.00;96454.41;5087376;28;19928;-82
2023/04/04 06:04:09;;;;;;;;;;;;;;;2.80;100.00;96460.28;5083146;28;19924;-82
2023/04/04 06:06:38;;;;;;;;;;;;;;;2.79;100.00;96461.28;5080922;28;19934;-83
2023/04/04 06:09:04;;;;;;;;;;;;;;;2.75;100.00;96459.97;5077266;28;19930;-82
2023/04/04 06:11:31;;;;;;;;;;;;;;;2.73;100.00;96460.16;5084122;28;19920;-82
2023/04/04 06:14:04;;;;;;;;;;;;;;;2.71;100.00;96472.03;5079862;28;19969;-82
2023/04/04 06:16:31;;;;;;;;;;;;;;;2.75;100.00;96466.13;5077617;28;19927;-82
2023/04/04 06:18:58;;;;;;;;;;;;;;;2.74;100.00;96469.81;5074264;28;19931;-80
2023/04/04 06:21:25;;;;;;;;;;;;;;;2.74;100.00;96464.47;5079719;28;19935;-82
2023/04/04 06:23:53;;;;;;;;;;;;;;;2.76;100.00;96461.63;5077754;28;19920;-82
2023/04/04 06:26:20;;;;;;;;;;;;;;;2.77;100.00;96469.47;5076894;28;19932;-82
2023/04/04 06:28:48;;;;;;;;;;;;;;;2.75;100.00;96471.47;5084158;28;19920;-81
2023/04/04 06:31:18;;;;;;;;;;;;;;;2.82;100.00;96471.59;5070290;28;19926;-81
2023/04/04 06:33:47;;;;;;;;;;;;;;;2.82;100.00;96471.59;5088632;28;19920;-81
2023/04/04 06:36:15;;;;;;;;;;;;;;;2.83;100.00;96479.41;5077026;28;19982;-82
2023/04/04 06:38:42;;;;;;;;;;;;;;;2.83;100.00;96475.91;5079185;28;19920;-82
2023/04/04 06:41:17;;;;;;;;;;;;;;;2.85;100.00;96480.06;5080283;28;19926;-82
2023/04/04 06:43:47;;;;;;;;;;;;;;;2.92;100.00;96483.66;5083888;28;19920;-82
2023/04/04 06:46:14;;;;;;;;;;;;;;;2.90;100.00;96485.69;5085590;28;19925;-80
2023/04/04 06:48:41;;;;;;;;;;;;;;;2.98;100.00;96482.94;5078704;28;19927;-81
2023/04/04 06:51:08;;;;;;;;;;;;;;;3.01;100.00;96482.59;5080673;28;20012;-81
2023/04/04 06:53:36;;;;;;;;;;;;;;;3.00;100.00;96480.94;5084614;28;19931;-82
2023/04/04 06:56:03;;;;;;;;;;;;;;;2.96;100.00;96481.50;5080860;28;19927;-82
2023/04/04 06:58:31;;;;;;;;;;;;;;;3.02;100.00;96478.91;5069679;28;19942;-81
2023/04/04 07:01:01;;;;;;;;;;;;;;;3.10;100.00;96479.84;5082926;28;19924;-83
2023/04/04 07:03:28;;;;;;;;;;;;;;;3.09;100.00;96480.88;5087207;28;19924;-81
2023/04/04 07:05:54;;;;;;;;;;;;;;;3.10;100.00;96487.84;5082159;28;19983;-81
2023/04/04 07:08:21;;;;;;;;;;;;;;;3.13;100.00;96487.50;5085788;28;20010;-81
2023/04/04 07:10:48;;;;;;;;;;;;;;;3.07;100.00;96493.53;5084627;28;19935;-82
2023/04/04 07:13:15;;;;;;;;;;;;;;;3.12;100.00;96489.34;5086958;28;19926;-82
2023/04/04 07:15:49;;;;;;;;;;;;;;;3.20;100.00;96488.44;5083980;28;19920;-82
2023/04/04 07:18:15;;;;;;;;;;;;;;;3.16;100.00;96489.78;5080653;28;19943;-81
2023/04/04 07:20:43;;;;;;;;;;;;;;;3.15;100.00;96488.97;5089284;28;19931;-81
2023/04/04 07:23:10;;;;;;;;;;;;;;;3.18;100.00;96488.63;5082805;28;19927;-82
2023/04/04 07:25:37;;;;;;;;;;;;;;;3.17;100.00;96492.28;5086351;28;19927;-82
2023/04/04 07:28:04;;;;;;;;;;;;;;;3.17;100.00;96488.78;5076134;28;19927;-82
2023/04/04 07:30:32;;;;;;;;;;;;;;;3.16;100.00;96489.78;5087980;28;19927;-82
2023/04/04 07:33:00;;;;;;;;;;;;;;;3.19;100.00;96486.78;5083726;28;19927;-80
2023/04/04 07:35:27;;;;;;;;;;;;;;;3.29;100.00;96479.34;5075317;28;19927;-81
2023/04/04 07:37:54;;;;;;;;;;;;;;;3.30;100.00;96483.69;5100472;28;19934;-82
2023/04/04 07:40:21;;;;;;;;;;;;;;;3.30;100.00;96479.16;5075002;28;19982;-81
2023/04/04 07:42:49;;;;;;;;;;;;;;;3.41;100.00;96484.03;5083478;28;19920;-81
2023/04/04 07:45:16;;;;;;;;;;;;;;;3.57;100.00;96487.56;5087477;28;19927;-82
2023/04/04 07:47:44;;;;;;;;;;;;;;;3.60;100.00;96488.03;5084595;28;19959;-81
2023/04/04 07:50:13;;;;;;;;;;;;;;;3.57;100.00;96485.75;5101273;28;19975;-82
2023/04/04 07:52:40;;;;;;;;;;;;;;;3.62;100.00;96486.00;5086908;28;19960;-82
2023/04/04 07:55:07;;;;;;;;;;;;;;;3.62;100.00;96485.19;5084426;28;19951;-81
2023/04/04 07:57:36;;;;;;;;;;;;;;;3.65;100.00;96482.97;5084053;28;19920;-81
2023/04/04 08:00:04;;;;;;;;;;;;;;;3.59;100.00;96496.22;5080629;28;19930;-83
2023/04/04 08:02:40;;;;;;;;;;;;;;;3.55;100.00;96484.25;5085507;28;19924;-81
2023/04/04 08:05:07;;;;;;;;;;;;;;;3.60;100.00;96481.84;5089905;28;19920;-81
2023/04/04 08:07:36;;;;;;;;;;;;;;;3.66;100.00;96486.44;5089993;28;19927;-81
2023/04/04 08:10:02;;;;;;;;;;;;;;;3.82;100.00;96480.13;5084515;28;19927;-81
2023/04/04 08:12:29;;;;;;;;;;;;;;;4.00;100.00;96486.72;5078009;28;19943;-81
2023/04/04 08:14:56;;;;;;;;;;;;;;;4.41;100.00;96480.84;5085954;28;19947;-81
2023/04/04 08:17:23;;;;;;;;;;;;;;;4.70;97.01;96477.25;5082164;28;21144;-81
2023/04/04 08:19:50;;;;;;;;;;;;;;;4.91;95.58;96482.59;5077441;28;19921;-81
2023/04/04 08:22:17;;;;;;;;;;;;;;;5.10;93.95;96476.63;5089715;28;19977;-81
2023/04/04 08:24:45;;;;;;;;;;;;;;;5.42;92.89;96475.22;5092655;28;19946;-81
2023/04/04 08:27:13;;;;;;;;;;;;;;;5.61;90.86;96482.53;5091661;28;19959;-81
2023/04/04 08:29:40;;;;;;;;;;;;;;;5.71;90.22;96488.38;5087059;28;19928;-81
2023/04/04 08:32:08;;;;;;;;;;;;;;;5.85;90.73;96486.63;5081632;28;19920;-80
2023/04/04 08:34:34;;;;;;;;;;;;;;;5.95;88.38;96491.66;5089056;28;19960;-81
2023/04/04 08:37:01;;;;;;;;;;;;;;;5.91;87.83;96496.56;5102071;28;19920;-81
2023/04/04 08:39:28;;;;;;;;;;;;;;;5.89;90.43;96487.06;5083325;28;19924;-81
2023/04/04 08:42:00;;;;;;;;;;;;;;;6.12;88.98;96489.47;5082193;28;19969;-81
2023/04/04 08:44:28;;;;;;;;;;;;;;;6.18;86.33;96494.88;5091680;28;19921;-82
2023/04/04 08:46:56;;;;;;;;;;;;;;;6.27;86.04;96493.66;5080304;28;19921;-81
2023/04/04 08:49:23;;;;;;;;;;;;;;;6.33;85.06;96489.34;5086299;28;19924;-82
2023/04/04 08:51:52;;;;;;;;;;;;;;;6.31;84.70;96502.13;5081369;28;19981;-81
2023/04/04 08:54:21;;;;;;;;;;;;;;;6.17;85.44;96498.56;5099993;28;19920;-82
2023/04/04 08:56:48;;;;;;;;;;;;;;;6.38;85.17;96486.91;5084767;28;19924;-81
2023/04/04 08:59:17;;;;;;;;;;;;;;;6.34;86.33;96491.84;5090628;28;19950;-81
2023/04/04 09:01:44;;;;;;;;;;;;;;;6.45;87.25;96493.13;5086249;28;19955;-81
2023/04/04 09:04:11;;;;;;;;;;;;;;;6.61;85.95;96491.94;5089088;28;19920;-80
2023/04/04 09:06:38;;;;;;;;;;;;;;;6.93;83.31;96490.34;5084543;28;19920;-81
2023/04/04 09:09:07;;;;;;;;;;;;;;;6.95;80.90;96482.94;5081039;28;19944;-82
2023/04/04 09:11:34;;;;;;;;;;;;;;;6.62;83.04;96489.06;5075828;28;19971;-82
2023/04/04 09:14:03;;;;;;;;;;;;;;;6.38;85.12;96486.91;5084705;28;19920;-82
2023/04/04 09:16:31;;;;;;;;;;;;;;;6.57;84.82;96479.94;5088323;28;19924;-83
2023/04/04 09:18:58;;;;;;;;;;;;;;;6.75;81.92;96488.25;5084382;28;19932;-82
2023/04/04 09:21:25;;;;;;;;;;;;;;;6.72;81.60;96473.38;5086175;28;19955;-82
2023/04/04 09:23:58;;;;;;;;;;;;;;;6.63;83.21;96477.28;5082031;28;19920;-82
2023/04/04 09:26:25;;;;;;;;;;;;;;;6.82;80.34;96481.03;5088710;28;19920;-82
2023/04/04 09:28:52;;;;;;;;;;;;;;;7.10;81.05;96480.88;5082571;28;19931;-83
2023/04/04 09:31:19;;;;;;;;;;;;;;;7.04;79.73;96479.03;5083193;28;19956;-83
2023/04/04 09:33:48;;;;;;;;;;;;;;;7.32;80.88;96471.56;5081028;28;19920;-82
2023/04/04 09:36:15;;;;;;;;;;;;;;;7.47;77.97;96477.59;5085970;28;19971;-82
2023/04/04 09:38:43;;;;;;;;;;;;;;;7.52;76.46;96469.72;5086174;28;19921;-82
2023/04/04 09:41:09;;;;;;;;;;;;;;;7.59;75.27;96470.53;5080213;28;19920;-82
2023/04/04 09:43:39;;;;;;;;;;;;;;;7.59;74.91;96469.69;5087957;28;19977;-82
2023/04/04 09:46:06;;;;;;;;;;;;;;;7.48;75.26;96473.88;5090816;28;19919;-83
2023/04/04 09:48:35;;;;;;;;;;;;;;;7.47;75.42;96472.22;5088866;28;20014;-83
2023/04/04 09:51:05;;;;;;;;;;;;;;;7.51;76.49;96467.22;5089227;28;19952;-83
2023/04/04 09:53:34;;;;;;;;;;;;;;;7.75;76.98;96468.44;5084646;28;19952;-83
2023/04/04 09:56:01;;;;;;;;;;;;;;;7.71;74.28;96461.84;5081827;28;19920;-83
2023/04/04 09:58:30;;;;;;;;;;;;;;;7.86;75.05;96465.13;5088138;28;19931;-83
2023/04/04 10:00:59;;;;;;;;;;;;;;;8.00;74.89;96469.41;5088995;28;19981;-82
2023/04/04 10:03:26;;;;;;;;;;;;;;;8.14;72.22;96473.72;5087155;28;19951;-82
2023/04/04 10:05:57;;;;;;;;;;;;;;;8.05;71.46;96466.94;5082595;28;19920;-81
2023/04/04 10:08:27;;;;;;;;;;;;;;;8.10;72.36;96469.81;5087345;28;19927;-81
2023/04/04 10:10:56;;;;;;;;;;;;;;;8.19;70.19;96473.09;5085606;28;19921;-81
2023/04/04 10:13:25;;;;;;;;;;;;;;;8.12;74.47;96458.84;5103252;28;19926;-81
2023/04/04 10:15:52;;;;;;;;;;;;;;;8.05;70.17;96463.41;5101928;28;19947;-81
2023/04/04 10:18:20;;;;;;;;;;;;;;;8.28;70.50;96469.13;5082453;28;19920;-81
2023/04/04 10:20:49;;;;;;;;;;;;;;;8.47;68.61;96456.66;5075414;28;19981;-82
2023/04/04 10:23:16;;;;;;;;;;;;;;;8.47;69.85;96459.34;5085639;28;20027;-81
2023/04/04 10:25:44;;;;;;;;;;;;;;;8.42;68.18;96467.25;5085258;28;19927;-82
2023/04/04 10:28:11;;;;;;;;;;;;;;;8.43;67.89;96466.19;5078672;28;19958;-81
2023/04/04 10:30:40;;;;;;;;;;;;;;;8.47;68.51;96462.03;5085126;28;19931;-80
2023/04/04 10:33:14;;;;;;;;;;;;;;;8.72;70.57;96457.56;5084910;28;19920;-81
2023/04/04 10:35:42;;;;;;;;;;;;;;;8.50;67.58;96456.25;5085768;28;19941;-81
2023/04/04 10:38:09;;;;;;;;;;;;;;;8.67;68.30;96462.78;5076074;28;19927;-82
2023/04/04 10:40:38;;;;;;;;;;;;;;;8.62;68.21;96465.28;5086486;28;19924;-81
2023/04/04 10:43:07;;;;;;;;;;;;;;;8.70;68.26;96463.16;5078127;28;19920;-81
2023/04/04 10:45:37;;;;;;;;;;;;;;;8.77;67.98;96444.25;5082382;28;19924;-82
2023/04/04 10:48:04;;;;;;;;;;;;;;;8.91;67.37;96453.94;5087697;28;19956;-82
2023/04/04 10:50:33;;;;;;;;;;;;;;;8.73;65.27;96445.75;5086916;28;19920;-82
2023/04/04 10:53:02;;;;;;;;;;;;;;;8.80;66.73;96446.53;5077853;28;19952;-82
2023/04/04 10:55:30;;;;;;;;;;;;;;;8.60;67.68;96437.75;5088555;28;19927;-82
2023/04/04 10:57:57;;;;;;;;;;;;;;;8.88;68.10;96438.19;5105505;28;19924;-82
2023/04/04 11:00:26;;;;;;;;;;;;;;;8.98;66.63;96438.56;5085985;28;19924;-82
2023/04/04 11:02:55;;;;;;;;;;;;;;;8.96;68.24;96440.63;5077661;28;19930;-83
2023/04/04 11:05:24;;;;;;;;;;;;;;;8.79;66.30;96428.72;5075160;28;19971;-83
2023/04/04 11:07:59;;;;;;;;;;;;;;;8.70;67.91;96438.09;5096932;28;19935;-83
2023/04/04 11:10:27;;;;;;;;;;;;;;;8.76;68.33;96434.56;5084977;28;19928;-82
2023/04/04 11:12:55;;;;;;;;;;;;;;;8.75;67.88;96438.31;5086572;28;19927;-83
2023/04/04 11:15:22;;;;;;;;;;;;;;;8.85;67.39;96429.72;5083654;28;19924;-82
2023/04/04 11:17:56;;;;;;;;;;;;;;;9.15;68.31;96427.25;5084509;28;19919;-83
2023/04/04 11:20:24;;;;;;;;;;;;;;;9.09;65.74;96434.34;5089269;28;19934;-81
2023/04/04 11:22:51;;;;;;;;;;;;;;;8.94;67.36;96436.50;5088140;28;19920;-82
2023/04/04 11:25:42;;;;;;;;;;;;;;;8.88;67.29;96432.81;5110249;28;19928;-82
2023/04/04 11:28:13;;;;;;;;;;;;;;;8.79;65.46;96426.03;5064491;28;19928;-82
2023/04/04 11:30:47;;;;;;;;;;;;;;;8.73;66.11;96429.59;5085202;28;19931;-81
2023/04/04 11:33:25;;;;;;;;;;;;;;;9.01;66.78;96432.75;5085160;28;19924;-82
2023/04/04 11:35:53;;;;;;;;;;;;;;;9.07;65.25;96425.66;5086847;28;19929;-82
2023/04/04 11:38:20;;;;;;;;;;;;;;;8.91;65.43;96427.00;5086322;28;19974;-82
2023/04/04 11:40:53;;;;;;;;;;;;;;;8.68;66.82;96427.53;5081837;28;19974;-82
2023/04/04 11:43:20;;;;;;;;;;;;;;;8.90;67.91;96429.91;5087721;28;19928;-82
2023/04/04 11:45:47;;;;;;;;;;;;;;;8.75;64.98;96424.84;5089700;28;20008;-82
2023/04/04 11:48:16;;;;;;;;;;;;;;;8.79;65.29;96417.97;5084445;28;19920;-82
2023/04/04 11:50:48;;;;;;;;;;;;;;;8.48;66.45;96426.84;5101376;28;19942;-82
2023/04/04 11:53:16;;;;;;;;;;;;;;;8.60;66.04;96424.28;5089999;28;20011;-82
2023/04/04 11:55:45;;;;;;;;;;;;;;;8.48;65.60;96429.53;5092296;28;19920;-82
2023/04/04 11:58:13;;;;;;;;;;;;;;;8.40;66.91;96423.59;5088915;28;19920;-82
2023/04/04 12:00:40;;;;;;;;;;;;;;;8.68;66.92;96418.63;5088344;28;19928;-82
2023/04/04 12:03:09;;;;;;;;;;;;;;;8.63;66.95;96424.69;5080808;28;19931;-82
2023/04/04 12:05:38;;;;;;;;;;;;;;;8.81;66.71;96425.81;5078035;28;19925;-82
2023/04/04 12:08:07;;;;;;;;;;;;;;;8.92;66.75;96428.66;5083564;28;19920;-81
2023/04/04 12:10:34;;;;;;;;;;;;;;;8.99;65.34;96424.03;5089439;28;19927;-82
2023/04/04 12:13:01;;;;;;;;;;;;;;;9.09;65.90;96426.25;5083850;28;19919;-82
2023/04/04 12:15:30;;;;;;;;;;;;;;;8.95;63.80;96438.16;5081324;28;19936;-82
2023/04/04 12:17:57;;;;;;;;;;;;;;;8.91;65.44;96421.63;5081223;28;20023;-82
2023/04/04 12:20:24;;;;;;;;;;;;;;;9.04;66.71;96426.06;5084814;28;19956;-82
2023/04/04 12:22:53;;;;;;;;;;;;;;;9.13;65.87;96423.94;5081078;28;19950;-82
2023/04/04 12:25:21;;;;;;;;;;;;;;;8.89;64.23;96439.03;5079318;28;19923;-82
2023/04/04 12:27:48;;;;;;;;;;;;;;;9.06;65.36;96424.81;5084118;28;19982;-82
2023/04/04 12:30:16;;;;;;;;;;;;;;;9.31;65.74;96424.81;5087185;28;19931;-82
2023/04/04 12:32:43;;;;;;;;;;;;;;;9.28;63.23;96432.50;5086729;28;20025;-82
2023/04/04 12:35:10;;;;;;;;;;;;;;;9.46;65.14;96419.91;5085416;28;19929;-82
2023/04/04 12:37:37;;;;;;;;;;;;;;;9.71;64.06;96416.34;5099685;28;19924;-81
2023/04/04 12:40:06;;;;;;;;;;;;;;;9.79;63.69;96419.59;5087800;28;19927;-82
2023/04/04 12:42:34;;;;;;;;;;;;;;;9.61;62.74;96418.75;5087081;28;19952;-82
2023/04/04 12:45:02;;;;;;;;;;;;;;;9.49;63.93;96415.97;5080694;28;19920;-82
2023/04/04 12:47:31;;;;;;;;;;;;;;;9.53;62.32;96419.06;5085610;28;19970;-82
2023/04/04 12:49:58;;;;;;;;;;;;;;;9.40;63.05;96412.72;5079317;28;19975;-81
2023/04/04 12:52:28;;;;;;;;;;;;;;;9.51;62.95;96413.88;5082826;28;19928;-81
2023/04/04 12:54:58;;;;;;;;;;;;;;;9.57;63.90;96412.16;5085706;28;19920;-81
2023/04/04 12:57:27;;;;;;;;;;;;;;;9.58;62.31;96417.31;5082001;28;19920;-82